Time;durP1;ratioP1;P1;durP2;ratioP2;P2;SDS_P1;SDS_P2;PMS_P1;PMS_P2;Temp;Humidity;BMP_temperature;BMP_pressure;BME280_temperature;BME280_humidity;BME280_pressure;Samples;Min_cycle;Max_cycle;Signal;HPM_P1;HPM_P2
2024/04/09 00:01:40;;;;;;;54.53;21.70;;;19.80;73.20;;;;;;809690;177;26398;-78
2024/04/09 00:04:07;;;;;;;26.00;8.50;;;19.80;73.50;;;;;;805774;176;26403;-79
2024/04/09 00:06:33;;;;;;;31.37;7.67;;;19.70;76.10;;;;;;807312;175;26430;-79
2024/04/09 00:09:00;;;;;;;26.37;4.90;;;19.60;76.70;;;;;;813608;175;26394;-78
2024/04/09 00:11:26;;;;;;;29.57;5.97;;;19.50;83.30;;;;;;806460;176;26979;-79
2024/04/09 00:13:53;;;;;;;49.40;17.87;;;19.50;74.70;;;;;;808069;176;26426;-79
2024/04/09 00:16:24;;;;;;;51.40;14.53;;;19.80;72.50;;;;;;811103;176;26402;-79
2024/04/09 00:18:50;;;;;;;70.70;37.63;;;19.80;72.90;;;;;;806323;176;26436;-79
2024/04/09 00:21:17;;;;;;;45.43;18.10;;;19.70;72.40;;;;;;808596;176;26611;-80
2024/04/09 00:23:43;;;;;;;84.30;37.73;;;19.60;74.50;;;;;;806388;176;26454;-80
2024/04/09 00:26:10;;;;;;;61.83;22.67;;;19.60;74.10;;;;;;806412;177;26576;-79
2024/04/09 00:28:36;;;;;;;44.90;16.13;;;19.50;77.20;;;;;;811855;176;26981;-80
2024/04/09 00:31:04;;;;;;;29.70;8.23;;;19.40;79.10;;;;;;811755;176;26556;-80
2024/04/09 00:33:30;;;;;;;37.60;11.40;;;19.30;81.10;;;;;;808514;175;26424;-76
2024/04/09 00:35:56;;;;;;;29.30;6.23;;;19.40;76.10;;;;;;802245;176;26471;-79
2024/04/09 00:38:23;;;;;;;22.47;5.57;;;19.70;74.20;;;;;;812379;176;26433;-79
2024/04/09 00:40:50;;;;;;;29.03;6.47;;;19.80;75.90;;;;;;807401;176;26434;-79
2024/04/09 00:43:17;;;;;;;24.73;5.67;;;19.80;70.80;;;;;;811654;176;26436;-79
2024/04/09 00:45:44;;;;;;;25.73;6.13;;;20.00;72.60;;;;;;811165;177;26581;-78
2024/04/09 00:48:11;;;;;;;16.80;3.87;;;19.80;75.70;;;;;;808282;177;26436;-79
2024/04/09 00:50:40;;;;;;;19.97;4.60;;;19.80;79.20;;;;;;809663;176;26470;-79
2024/04/09 00:53:06;;;;;;;17.03;3.87;;;19.60;81.40;;;;;;809925;176;26435;-80
2024/04/09 00:55:32;;;;;;;15.10;5.23;;;19.60;84.20;;;;;;808737;177;26457;-80
2024/04/09 00:57:57;;;;;;;16.57;4.63;;;19.40;87.50;;;;;;810951;177;26591;-81
2024/04/09 01:00:23;;;;;;;19.60;4.37;;;19.30;90.40;;;;;;810758;176;26577;-80
2024/04/09 01:02:51;;;;;;;19.70;4.50;;;19.10;92.90;;;;;;811100;177;26419;-80
2024/04/09 01:05:16;;;;;;;18.07;4.73;;;19.00;94.30;;;;;;811217;177;26432;-80
2024/04/09 01:07:43;;;;;;;28.57;6.57;;;18.90;95.50;;;;;;808261;177;26431;-80
2024/04/09 01:10:10;;;;;;;21.93;7.23;;;18.70;95.80;;;;;;809933;177;26478;-79
2024/04/09 01:12:36;;;;;;;17.70;5.40;;;18.70;96.90;;;;;;807670;176;26423;-79
2024/04/09 01:15:03;;;;;;;16.50;4.93;;;18.60;97.50;;;;;;807931;176;26433;-79
2024/04/09 01:17:30;;;;;;;14.97;4.13;;;18.50;98.40;;;;;;807680;176;26425;-79
2024/04/09 01:19:56;;;;;;;17.53;4.10;;;18.40;98.80;;;;;;812679;176;26414;-80
2024/04/09 01:22:23;;;;;;;20.67;4.53;;;18.40;99.50;;;;;;797743;177;26407;-79
2024/04/09 01:24:50;;;;;;;22.27;4.47;;;18.20;99.70;;;;;;809341;176;26432;-78
2024/04/09 01:27:16;;;;;;;21.27;4.60;;;18.20;99.90;;;;;;808278;176;26535;-79
2024/04/09 01:29:43;;;;;;;25.17;9.17;;;18.20;99.90;;;;;;814457;176;26436;-78
2024/04/09 01:32:09;;;;;;;18.57;4.73;;;18.10;99.90;;;;;;812986;176;26400;-78
2024/04/09 01:34:36;;;;;;;12.87;4.30;;;18.00;99.90;;;;;;814253;177;26731;-78
2024/04/09 01:37:03;;;;;;;18.17;3.90;;;18.00;99.90;;;;;;810053;176;26420;-79
2024/04/09 01:39:29;;;;;;;19.00;4.30;;;17.90;99.90;;;;;;809155;175;26432;-79
2024/04/09 01:41:56;;;;;;;13.97;4.40;;;17.90;99.90;;;;;;809805;177;26471;-79
2024/04/09 01:44:22;;;;;;;18.97;5.27;;;17.90;99.90;;;;;;806835;176;26502;-79
2024/04/09 01:46:49;;;;;;;18.43;4.53;;;17.80;99.90;;;;;;812570;177;26544;-79
2024/04/09 01:49:16;;;;;;;16.57;4.50;;;17.80;99.90;;;;;;814239;176;26401;-79
2024/04/09 01:51:43;;;;;;;11.63;4.00;;;17.70;99.90;;;;;;809780;177;26401;-79
2024/04/09 01:54:09;;;;;;;13.73;3.50;;;17.70;99.90;;;;;;807814;177;26421;-79
2024/04/09 01:56:35;;;;;;;21.50;4.40;;;17.60;99.90;;;;;;807393;177;26411;-78
2024/04/09 01:59:02;;;;;;;17.90;3.60;;;17.60;99.90;;;;;;809695;176;26404;-78
2024/04/09 02:01:30;;;;;;;11.77;3.30;;;17.60;99.90;;;;;;810403;177;26408;-78
2024/04/09 02:03:56;;;;;;;13.63;3.80;;;17.60;99.90;;;;;;809729;176;26404;-78
2024/04/09 02:06:23;;;;;;;20.37;3.53;;;17.60;99.90;;;;;;810500;177;26423;-79
2024/04/09 02:08:50;;;;;;;16.53;3.60;;;17.60;99.90;;;;;;809122;176;26416;-79
2024/04/09 02:11:16;;;;;;;12.07;3.57;;;17.50;99.90;;;;;;807532;178;26404;-80
2024/04/09 02:13:42;;;;;;;11.87;3.50;;;17.50;99.90;;;;;;807810;178;26403;-80
2024/04/09 02:16:09;;;;;;;13.70;3.07;;;17.50;99.90;;;;;;808638;177;26398;-80
2024/04/09 02:18:36;;;;;;;14.33;3.83;;;17.50;99.90;;;;;;807761;178;26580;-80
2024/04/09 02:21:06;;;;;;;15.70;3.37;;;17.40;99.90;;;;;;807689;177;26418;-80
2024/04/09 02:23:29;;;;;;;18.13;4.77;;;17.40;99.90;;;;;;805800;176;26453;-78
2024/04/09 02:25:56;;;;;;;14.10;4.37;;;17.30;99.90;;;;;;804836;177;26577;-78
2024/04/09 02:28:22;;;;;;;15.00;3.83;;;17.30;99.90;;;;;;805813;176;26609;-80
2024/04/09 02:30:49;;;;;;;13.60;3.77;;;17.30;99.90;;;;;;812113;174;26447;-78
2024/04/09 02:33:17;;;;;;;12.87;3.30;;;17.20;99.90;;;;;;813698;176;26517;-79
2024/04/09 02:35:42;;;;;;;14.97;3.50;;;17.20;99.90;;;;;;809523;176;26412;-78
2024/04/09 02:38:10;;;;;;;12.07;3.60;;;17.20;99.90;;;;;;811199;176;26450;-79
2024/04/09 02:40:36;;;;;;;13.27;4.23;;;17.10;99.90;;;;;;805803;176;26615;-79
2024/04/09 02:43:03;;;;;;;16.53;3.63;;;17.10;99.90;;;;;;807420;176;26444;-79
2024/04/09 02:45:29;;;;;;;18.90;6.47;;;17.00;99.90;;;;;;811009;177;26985;-79
2024/04/09 02:47:56;;;;;;;24.57;6.40;;;16.90;99.90;;;;;;805314;176;26401;-78
2024/04/09 02:50:22;;;;;;;12.97;4.43;;;16.90;99.90;;;;;;807964;176;27034;-78
2024/04/09 02:52:49;;;;;;;13.73;4.03;;;16.80;99.90;;;;;;807487;176;27015;-80
2024/04/09 02:55:17;;;;;;;12.63;3.70;;;16.70;99.90;;;;;;809429;176;26461;-80
2024/04/09 02:57:43;;;;;;;8.00;3.00;;;16.70;99.90;;;;;;805525;177;26433;-82
2024/04/09 03:00:15;;;;;;;16.67;3.30;;;16.70;99.90;;;;;;807568;176;26436;-79
2024/04/09 03:02:36;;;;;;;19.83;4.37;;;16.70;99.90;;;;;;811100;176;26588;-79
2024/04/09 03:05:02;;;;;;;11.07;3.57;;;16.70;99.90;;;;;;801161;177;26455;-80
2024/04/09 03:07:29;;;;;;;10.20;3.23;;;16.70;99.90;;;;;;804394;176;26421;-79
2024/04/09 03:09:55;;;;;;;15.27;3.20;;;16.60;99.90;;;;;;808810;175;26423;-79
2024/04/09 03:12:22;;;;;;;11.77;3.40;;;16.60;99.90;;;;;;808476;177;26499;-80
2024/04/09 03:14:50;;;;;;;13.70;3.47;;;16.60;99.90;;;;;;807716;177;27015;-80
2024/04/09 03:17:16;;;;;;;13.90;3.10;;;16.60;99.90;;;;;;808180;177;26403;-79
2024/04/09 03:19:42;;;;;;;12.47;4.07;;;16.70;99.90;;;;;;807060;176;27010;-78
2024/04/09 03:22:09;;;;;;;13.87;3.33;;;16.70;99.90;;;;;;812356;176;26419;-79
2024/04/09 03:24:35;;;;;;;10.50;2.87;;;16.70;99.90;;;;;;803364;176;26573;-79
2024/04/09 03:27:02;;;;;;;12.60;3.80;;;16.70;99.90;;;;;;809750;177;26991;-78
2024/04/09 03:29:29;;;;;;;13.10;3.40;;;16.80;99.90;;;;;;808638;177;26453;-79
2024/04/09 03:31:55;;;;;;;9.03;3.60;;;16.90;99.90;;;;;;807174;177;26449;-79
2024/04/09 03:34:22;;;;;;;15.97;4.13;;;16.90;99.90;;;;;;809076;176;26441;-80
2024/04/09 03:36:48;;;;;;;11.73;2.97;;;16.90;99.90;;;;;;813472;177;26552;-79
2024/04/09 03:39:15;;;;;;;15.10;3.70;;;16.90;99.90;;;;;;813452;176;26422;-79
2024/04/09 03:41:41;;;;;;;14.93;4.23;;;16.90;99.90;;;;;;816780;174;26460;-80
2024/04/09 03:44:08;;;;;;;12.97;3.50;;;16.80;99.90;;;;;;803170;178;26726;-79
2024/04/09 03:46:35;;;;;;;15.23;3.93;;;16.60;99.90;;;;;;807775;176;26466;-80
2024/04/09 03:49:03;;;;;;;19.37;4.00;;;16.50;99.90;;;;;;806984;177;26974;-78
2024/04/09 03:51:28;;;;;;;16.63;3.90;;;16.30;99.90;;;;;;807158;176;26441;-79
2024/04/09 03:53:55;;;;;;;18.10;4.00;;;16.30;99.90;;;;;;811076;177;26610;-80
2024/04/09 03:56:21;;;;;;;17.90;3.80;;;16.20;99.90;;;;;;809380;177;26428;-78
2024/04/09 03:58:48;;;;;;;12.53;3.30;;;16.20;99.90;;;;;;810478;177;26433;-80
2024/04/09 04:01:16;;;;;;;16.33;3.83;;;16.00;99.90;;;;;;812217;177;26585;-79
2024/04/09 04:03:41;;;;;;;12.30;3.43;;;16.00;99.90;;;;;;811858;177;26425;-80
2024/04/09 04:06:07;;;;;;;17.17;3.97;;;15.90;99.90;;;;;;813322;176;26402;-80
2024/04/09 04:08:34;;;;;;;7.30;3.20;;;15.90;99.90;;;;;;807317;176;26985;-78
2024/04/09 04:11:01;;;;;;;17.37;4.00;;;15.90;99.90;;;;;;805910;175;26448;-80
2024/04/09 04:13:29;;;;;;;11.10;3.20;;;15.80;99.90;;;;;;805796;177;26440;-79
2024/04/09 04:16:04;;;;;;;13.57;3.53;;;15.80;99.90;;;;;;814403;176;26416;-79
2024/04/09 04:18:29;;;;;;;10.07;3.40;;;15.70;99.90;;;;;;810819;176;26461;-79
2024/04/09 04:20:56;;;;;;;13.57;4.33;;;15.60;99.90;;;;;;808643;175;26447;-80
2024/04/09 04:23:23;;;;;;;11.80;3.23;;;15.50;99.90;;;;;;807906;174;26454;-79
2024/04/09 04:26:02;;;;;;;15.87;4.00;;;15.40;99.90;;;;;;813804;177;26517;-78
2024/04/09 04:28:28;;;;;;;10.83;3.77;;;15.50;99.90;;;;;;813659;177;26406;-79
2024/04/09 04:30:55;;;;;;;9.33;3.10;;;15.30;99.90;;;;;;811663;176;26442;-80
2024/04/09 04:33:21;;;;;;;7.47;2.83;;;15.20;99.90;;;;;;809279;177;26537;-79
2024/04/09 04:35:48;;;;;;;9.97;3.43;;;15.10;99.90;;;;;;810159;177;26400;-79
2024/04/09 04:38:14;;;;;;;9.93;3.60;;;15.00;99.90;;;;;;810667;177;26408;-79
2024/04/09 04:40:41;;;;;;;12.20;3.50;;;15.00;99.90;;;;;;810354;178;26490;-79
2024/04/09 04:43:08;;;;;;;14.80;4.10;;;15.10;99.90;;;;;;810228;178;26411;-79
2024/04/09 04:45:34;;;;;;;7.40;2.83;;;15.00;99.90;;;;;;806819;177;26404;-79
2024/04/09 04:48:01;;;;;;;11.47;3.03;;;15.20;99.90;;;;;;810694;177;27989;-79
2024/04/09 04:50:28;;;;;;;11.07;3.30;;;15.30;99.90;;;;;;807997;178;26452;-78
2024/04/09 04:52:54;;;;;;;11.07;2.83;;;15.30;99.90;;;;;;809368;175;26980;-79
2024/04/09 04:55:21;;;;;;;7.73;3.63;;;15.30;99.90;;;;;;805102;176;26429;-79
2024/04/09 04:57:47;;;;;;;12.30;3.53;;;15.40;99.90;;;;;;813074;176;26461;-79
2024/04/09 05:00:14;;;;;;;8.60;2.80;;;15.40;99.90;;;;;;806214;176;26419;-79
2024/04/09 05:02:41;;;;;;;8.53;3.13;;;15.40;99.90;;;;;;807029;177;26456;-79
2024/04/09 05:05:07;;;;;;;7.57;2.83;;;15.50;99.90;;;;;;808155;176;26406;-81
2024/04/09 05:07:34;;;;;;;5.10;2.03;;;15.50;99.90;;;;;;808833;176;26407;-79
2024/04/09 05:10:00;;;;;;;5.63;2.33;;;15.60;99.90;;;;;;806648;176;26977;-80
2024/04/09 05:12:27;;;;;;;5.87;2.17;;;15.60;99.90;;;;;;806689;176;26428;-78
2024/04/09 05:14:54;;;;;;;4.47;1.63;;;15.50;99.90;;;;;;812553;176;27006;-78
2024/04/09 05:17:20;;;;;;;7.97;2.30;;;15.50;99.90;;;;;;813021;176;26418;-79
2024/04/09 05:19:49;;;;;;;4.33;1.97;;;15.50;99.90;;;;;;806395;177;26457;-80
2024/04/09 05:22:16;;;;;;;3.67;2.30;;;15.40;99.90;;;;;;812677;176;26415;-80
2024/04/09 05:24:43;;;;;;;5.50;2.57;;;15.30;99.90;;;;;;812759;176;26410;-79
2024/04/09 05:27:07;;;;;;;6.33;2.73;;;15.20;99.90;;;;;;813918;177;26414;-79
2024/04/09 05:29:34;;;;;;;8.07;2.40;;;15.20;99.90;;;;;;814632;176;26486;-79
2024/04/09 05:32:00;;;;;;;8.37;2.50;;;15.20;99.90;;;;;;806916;178;26418;-78
2024/04/09 05:34:27;;;;;;;11.47;3.23;;;15.10;99.90;;;;;;812724;177;26413;-79
2024/04/09 05:36:54;;;;;;;4.80;2.17;;;15.10;99.90;;;;;;808518;177;26428;-79
2024/04/09 05:39:20;;;;;;;6.40;2.30;;;15.20;99.90;;;;;;814897;176;26429;-78
2024/04/09 05:41:46;;;;;;;9.00;2.63;;;15.30;99.90;;;;;;810956;176;26591;-78
2024/04/09 05:44:13;;;;;;;4.63;2.07;;;15.20;99.90;;;;;;811789;176;26965;-80
2024/04/09 05:46:40;;;;;;;5.17;2.20;;;15.20;99.90;;;;;;805659;177;26405;-80
2024/04/09 05:49:07;;;;;;;7.90;1.90;;;15.30;99.90;;;;;;806810;176;26577;-80
2024/04/09 05:51:33;;;;;;;8.27;3.03;;;15.30;99.90;;;;;;811377;177;26986;-79
2024/04/09 05:53:59;;;;;;;2.67;1.70;;;15.30;99.90;;;;;;809845;177;26475;-78
2024/04/09 05:56:26;;;;;;;3.47;2.03;;;15.30;99.90;;;;;;810545;177;28046;-79
2024/04/09 05:58:52;;;;;;;3.50;1.60;;;15.30;99.90;;;;;;809034;176;26430;-79
2024/04/09 06:01:19;;;;;;;11.57;1.90;;;15.30;99.90;;;;;;809547;176;28033;-79
2024/04/09 06:03:46;;;;;;;3.97;1.93;;;15.20;99.90;;;;;;803998;176;26565;-78
2024/04/09 06:06:12;;;;;;;3.47;1.60;;;15.10;99.90;;;;;;809011;177;26407;-78
2024/04/09 06:08:39;;;;;;;5.13;1.80;;;15.00;99.90;;;;;;807143;176;26481;-79
2024/04/09 06:11:05;;;;;;;2.40;1.83;;;15.00;99.90;;;;;;811456;176;26449;-79
2024/04/09 06:13:32;;;;;;;4.73;1.90;;;14.90;99.90;;;;;;812252;177;26417;-80
2024/04/09 06:15:59;;;;;;;3.70;1.90;;;14.80;99.90;;;;;;810548;177;26422;-79
2024/04/09 06:18:25;;;;;;;3.93;1.97;;;14.90;99.90;;;;;;812266;177;26403;-79
2024/04/09 06:20:52;;;;;;;3.07;1.60;;;14.90;99.90;;;;;;809385;177;26580;-79
2024/04/09 06:23:18;;;;;;;3.83;1.70;;;14.80;99.90;;;;;;807724;177;26579;-78
2024/04/09 06:26:00;;;;;;;2.10;1.87;;;14.80;99.90;;;;;;806065;177;26404;-78
2024/04/09 06:28:26;;;;;;;1.77;1.33;;;14.80;99.90;;;;;;807908;177;26400;-79
2024/04/09 06:30:53;;;;;;;4.20;1.60;;;14.70;99.90;;;;;;808393;177;26445;-79
2024/04/09 06:33:19;;;;;;;3.57;1.27;;;14.60;99.90;;;;;;805597;177;26446;-81
2024/04/09 06:35:46;;;;;;;3.33;1.60;;;14.60;99.90;;;;;;804388;178;26985;-79
2024/04/09 06:38:13;;;;;;;2.70;1.40;;;14.50;99.90;;;;;;805797;177;26411;-79
2024/04/09 06:40:39;;;;;;;4.47;1.90;;;14.50;99.90;;;;;;803766;177;26430;-80
2024/04/09 06:43:06;;;;;;;4.87;1.53;;;14.50;99.90;;;;;;806239;174;26438;-80
2024/04/09 06:45:32;;;;;;;6.50;2.37;;;14.50;99.90;;;;;;813879;176;26410;-80
2024/04/09 06:47:59;;;;;;;2.23;1.40;;;14.50;99.90;;;;;;809390;177;26420;-78
2024/04/09 06:50:26;;;;;;;2.23;1.20;;;14.40;99.90;;;;;;809965;177;26426;-79
2024/04/09 06:52:53;;;;;;;3.63;1.60;;;14.30;99.90;;;;;;805900;176;26437;-79
2024/04/09 06:55:19;;;;;;;3.27;1.30;;;14.00;99.90;;;;;;806088;177;26447;-78
2024/04/09 06:57:45;;;;;;;2.73;1.20;;;13.80;99.90;;;;;;811425;177;26963;-78
2024/04/09 07:00:14;;;;;;;1.93;1.20;;;13.60;99.90;;;;;;810635;177;26484;-79
2024/04/09 07:02:40;;;;;;;2.27;1.77;;;13.40;99.90;;;;;;804391;177;26404;-78
2024/04/09 07:05:07;;;;;;;1.43;1.30;;;13.20;99.90;;;;;;804931;178;26412;-79
2024/04/09 07:07:32;;;;;;;3.97;2.13;;;13.00;99.90;;;;;;805459;176;26408;-79
2024/04/09 07:10:00;;;;;;;5.00;2.23;;;12.80;99.90;;;;;;810855;176;26447;-79
2024/04/09 07:12:26;;;;;;;6.20;1.50;;;12.70;99.90;;;;;;806392;177;28055;-79
2024/04/09 07:14:52;;;;;;;4.23;1.60;;;12.60;99.90;;;;;;811394;176;26994;-79
2024/04/09 07:17:19;;;;;;;3.80;1.43;;;12.60;99.90;;;;;;806220;176;26424;-79
2024/04/09 07:19:46;;;;;;;6.60;1.60;;;12.50;99.90;;;;;;814047;176;26431;-80
2024/04/09 07:22:13;;;;;;;2.93;1.30;;;12.60;99.90;;;;;;808578;177;26403;-79
2024/04/09 07:24:43;;;;;;;6.77;2.00;;;12.50;99.90;;;;;;805899;177;26542;-79
2024/04/09 07:27:07;;;;;;;4.77;1.77;;;12.40;99.90;;;;;;805248;177;26425;-78
2024/04/09 07:29:34;;;;;;;3.07;1.50;;;12.40;99.90;;;;;;806947;177;26517;-78
2024/04/09 07:32:00;;;;;;;5.60;2.10;;;12.50;99.90;;;;;;807556;176;26418;-78
2024/04/09 07:34:26;;;;;;;4.50;1.73;;;12.40;99.90;;;;;;814218;176;26425;-79
2024/04/09 07:36:53;;;;;;;4.00;1.80;;;12.40;99.90;;;;;;806933;176;26436;-79
2024/04/09 07:39:19;;;;;;;5.17;1.60;;;12.40;99.90;;;;;;808446;177;26430;-79
2024/04/09 07:41:46;;;;;;;5.67;1.50;;;12.50;99.90;;;;;;812849;177;26421;-79
2024/04/09 07:44:13;;;;;;;6.43;1.93;;;12.60;99.90;;;;;;799475;177;26396;-79
2024/04/09 07:46:44;;;;;;;3.87;1.53;;;12.60;99.90;;;;;;808649;176;26416;-78
2024/04/09 07:49:06;;;;;;;5.97;1.87;;;12.60;99.90;;;;;;807350;176;26422;-78
2024/04/09 07:51:32;;;;;;;6.10;1.70;;;12.60;99.90;;;;;;808753;176;26422;-78
2024/04/09 07:53:59;;;;;;;5.10;1.80;;;12.70;99.90;;;;;;807363;177;26420;-79
2024/04/09 07:56:26;;;;;;;3.13;1.67;;;12.70;99.90;;;;;;813271;176;26450;-79
2024/04/09 07:58:52;;;;;;;3.27;1.57;;;12.80;99.90;;;;;;810098;177;26421;-79
2024/04/09 08:01:19;;;;;;;5.20;1.97;;;12.80;99.90;;;;;;812287;176;26411;-79
2024/04/09 08:03:46;;;;;;;23.13;10.33;;;12.90;99.90;;;;;;812892;176;26411;-79
2024/04/09 08:06:12;;;;;;;11.70;4.63;;;13.00;99.90;;;;;;807573;177;26399;-79
2024/04/09 08:08:39;;;;;;;5.83;2.10;;;13.00;99.90;;;;;;809498;177;26970;-80
2024/04/09 08:11:07;;;;;;;6.23;2.27;;;13.10;99.90;;;;;;807893;177;26448;-80
2024/04/09 08:13:34;;;;;;;3.37;1.67;;;13.20;99.90;;;;;;809303;177;26402;-80
2024/04/09 08:16:00;;;;;;;6.27;3.07;;;13.30;99.90;;;;;;804337;176;26436;-79
2024/04/09 08:18:27;;;;;;;4.77;2.50;;;13.30;99.90;;;;;;810676;176;26384;-79
2024/04/09 08:20:53;;;;;;;6.83;2.20;;;13.40;99.90;;;;;;806276;177;26448;-80
2024/04/09 08:23:20;;;;;;;4.87;1.57;;;13.40;99.90;;;;;;804144;177;26990;-80
2024/04/09 08:25:49;;;;;;;3.70;2.20;;;13.50;99.90;;;;;;811442;177;26448;-79
2024/04/09 08:28:13;;;;;;;6.80;2.30;;;13.50;99.90;;;;;;813170;174;26939;-80
2024/04/09 08:30:40;;;;;;;6.17;2.47;;;13.50;99.90;;;;;;811718;176;26472;-79
2024/04/09 08:33:07;;;;;;;4.17;1.77;;;13.40;99.90;;;;;;807007;176;26679;-79
2024/04/09 08:35:33;;;;;;;8.87;1.80;;;13.40;99.90;;;;;;807675;177;26429;-79
2024/04/09 08:37:59;;;;;;;6.17;1.97;;;13.40;99.90;;;;;;804585;177;26408;-79
2024/04/09 08:40:27;;;;;;;3.97;1.90;;;13.50;99.90;;;;;;805564;177;27007;-79
2024/04/09 08:42:54;;;;;;;11.33;5.30;;;13.50;99.90;;;;;;809594;176;26421;-80
2024/04/09 08:45:20;;;;;;;32.53;20.77;;;13.60;99.90;;;;;;810435;176;26407;-79
2024/04/09 08:47:47;;;;;;;10.93;5.33;;;13.60;99.90;;;;;;814389;176;26420;-79
2024/04/09 08:50:13;;;;;;;6.43;3.10;;;13.50;99.90;;;;;;811391;177;26683;-79
2024/04/09 08:52:40;;;;;;;5.60;3.00;;;13.60;99.90;;;;;;810052;177;26430;-80
2024/04/09 08:55:08;;;;;;;4.90;2.03;;;13.70;99.90;;;;;;808536;177;26408;-79
2024/04/09 08:57:34;;;;;;;4.90;1.90;;;13.80;99.90;;;;;;812268;177;26552;-80
2024/04/09 09:00:04;;;;;;;2.03;1.40;;;13.80;99.90;;;;;;808756;177;26452;-79
2024/04/09 09:02:27;;;;;;;7.23;2.60;;;13.60;99.90;;;;;;808909;177;26409;-81
2024/04/09 09:04:54;;;;;;;6.93;2.57;;;13.60;99.90;;;;;;805126;177;26416;-79
2024/04/09 09:07:22;;;;;;;5.87;3.03;;;13.60;99.90;;;;;;803383;178;26430;-79
2024/04/09 09:09:47;;;;;;;8.80;2.90;;;13.60;99.90;;;;;;804177;175;27023;-79
2024/04/09 09:12:13;;;;;;;5.60;1.90;;;13.60;99.90;;;;;;809295;176;26422;-80
2024/04/09 09:14:52;;;;;;;8.73;1.93;;;13.50;99.90;;;;;;808910;177;26446;-79
2024/04/09 09:17:19;;;;;;;4.40;1.73;;;13.40;99.90;;;;;;804620;176;26445;-79
2024/04/09 09:19:45;;;;;;;9.67;2.27;;;13.40;99.90;;;;;;808625;177;26466;-78
2024/04/09 09:22:12;;;;;;;3.57;1.53;;;13.40;99.90;;;;;;806341;176;26506;-79
2024/04/09 09:24:38;;;;;;;7.80;3.13;;;13.40;99.90;;;;;;811621;176;26427;-81
2024/04/09 09:27:05;;;;;;;4.57;2.33;;;13.40;99.90;;;;;;812178;177;26415;-78
2024/04/09 09:29:32;;;;;;;3.97;2.10;;;13.40;99.90;;;;;;809161;177;26435;-79
2024/04/09 09:31:59;;;;;;;5.37;2.23;;;13.40;99.90;;;;;;805822;175;26566;-78
2024/04/09 09:34:31;;;;;;;9.87;2.50;;;13.40;99.90;;;;;;807248;177;26507;-79
2024/04/09 09:36:58;;;;;;;4.83;2.00;;;13.50;99.90;;;;;;804040;177;26405;-79
2024/04/09 09:39:24;;;;;;;3.43;1.60;;;13.60;99.90;;;;;;808182;175;26453;-79
2024/04/09 09:41:51;;;;;;;5.13;2.10;;;13.70;99.90;;;;;;811569;176;26407;-78
2024/04/09 09:44:17;;;;;;;4.50;2.17;;;14.10;99.90;;;;;;793669;178;26515;-79
2024/04/09 09:46:45;;;;;;;5.30;1.90;;;14.30;99.90;;;;;;806911;176;26988;-78
2024/04/09 09:49:33;;;;;;;8.20;2.30;;;14.60;99.90;;;;;;807299;172;26510;-85
2024/04/09 09:52:01;;;;;;;5.53;2.10;;;14.70;99.90;;;;;;803359;177;26431;-84
2024/04/09 09:54:37;;;;;;;8.63;2.50;;;14.80;99.90;;;;;;802834;177;26439;-85
2024/04/09 09:57:05;;;;;;;4.70;2.50;;;15.20;99.90;;;;;;780109;176;26498;-84
2024/04/09 09:59:54;;;;;;;9.83;3.97;;;15.60;99.90;;;;;;797849;174;26444;-83
2024/04/09 10:02:22;;;;;;;5.03;1.80;;;15.70;99.90;;;;;;782555;178;26490;-84
2024/04/09 10:04:50;;;;;;;7.77;1.83;;;15.50;99.90;;;;;;788809;179;26565;-84
2024/04/09 10:07:21;;;;;;;6.43;2.50;;;15.40;99.50;;;;;;773963;180;26486;-81
2024/04/09 10:09:46;;;;;;;6.07;2.40;;;14.90;98.40;;;;;;797406;174;26457;-84
2024/04/09 10:12:23;;;;;;;28.43;14.23;;;14.40;98.30;;;;;;797246;175;26471;-82
2024/04/09 10:15:10;;;;;;;12.10;5.80;;;14.40;98.40;;;;;;798195;172;26464;-80
2024/04/09 10:17:56;;;;;;;34.13;15.80;;;14.50;95.30;;;;;;810118;172;26438;-83
2024/04/09 10:20:25;;;;;;;14.30;7.90;;;14.60;96.30;;;;;;798713;178;26480;-83
2024/04/09 10:22:57;;;;;;;47.00;22.93;;;14.80;93.30;;;;;;814261;173;26489;-82
2024/04/09 10:25:26;;;;;;;98.70;45.67;;;14.70;93.40;;;;;;814315;175;26411;-82
2024/04/09 10:28:05;;;;;;;24.93;12.90;;;14.30;94.90;;;;;;802603;177;26422;-83
2024/04/09 10:30:31;;;;;;;20.87;10.10;;;14.30;95.40;;;;;;795800;177;26471;-83
2024/04/09 10:32:58;;;;;;;25.93;13.13;;;14.20;96.40;;;;;;800321;177;27657;-82
2024/04/09 10:35:25;;;;;;;31.40;15.20;;;14.10;94.00;;;;;;797721;176;26471;-82
2024/04/09 10:37:53;;;;;;;30.13;13.97;;;14.00;94.20;;;;;;795880;178;26419;-84
2024/04/09 10:40:19;;;;;;;32.43;16.63;;;14.00;94.40;;;;;;800562;173;26454;-83
2024/04/09 10:42:46;;;;;;;27.37;13.03;;;13.90;94.00;;;;;;804733;177;26430;-82
2024/04/09 10:45:12;;;;;;;19.47;9.80;;;13.90;94.50;;;;;;804639;175;26444;-82
2024/04/09 10:47:39;;;;;;;9.43;3.67;;;14.00;94.60;;;;;;802472;176;26439;-84
2024/04/09 10:50:07;;;;;;;27.87;12.77;;;14.00;95.50;;;;;;808485;174;26460;-82
2024/04/09 10:52:39;;;;;;;11.77;5.00;;;14.10;94.50;;;;;;814384;173;26471;-82
2024/04/09 10:55:14;;;;;;;12.73;5.07;;;14.00;96.20;;;;;;807472;177;26440;-83
2024/04/09 10:57:42;;;;;;;57.73;27.83;;;14.10;95.00;;;;;;804506;176;26449;-83
2024/04/09 11:00:12;;;;;;;15.00;6.77;;;14.10;94.80;;;;;;801702;176;26470;-82
2024/04/09 11:02:39;;;;;;;16.40;7.13;;;14.20;94.90;;;;;;790677;179;26430;-83
2024/04/09 11:05:06;;;;;;;6.37;2.60;;;14.30;95.50;;;;;;806648;179;26587;-83
2024/04/09 11:07:33;;;;;;;6.63;2.03;;;14.30;95.40;;;;;;802128;179;26440;-83
2024/04/09 11:10:03;;;;;;;38.27;21.33;;;14.30;95.20;;;;;;801093;176;26439;-83
2024/04/09 11:12:34;;;;;;;40.70;17.50;;;14.60;96.60;;;;;;803631;176;26600;-82
2024/04/09 11:15:01;;;;;;;10.37;3.33;;;14.90;94.80;;;;;;806630;176;26472;-82
2024/04/09 11:17:32;;;;;;;10.47;2.50;;;15.10;94.30;;;;;;810669;176;26430;-85
2024/04/09 11:20:09;;;;;;;5.37;2.43;;;14.90;92.40;;;;;;811508;174;26446;-82
2024/04/09 11:22:32;;;;;;;7.63;2.30;;;14.80;92.10;;;;;;814835;175;26508;-82
2024/04/09 11:25:04;;;;;;;8.40;2.90;;;14.40;92.00;;;;;;805764;176;26433;-84
2024/04/09 11:27:31;;;;;;;8.07;4.77;;;14.50;91.70;;;;;;800472;177;26460;-83
2024/04/09 11:29:59;;;;;;;12.90;5.73;;;14.30;90.60;;;;;;807794;175;26479;-82
2024/04/09 11:32:29;;;;;;;17.20;8.30;;;14.40;90.90;;;;;;809471;175;26476;-84
2024/04/09 11:34:55;;;;;;;8.07;2.73;;;14.50;92.30;;;;;;805659;176;26450;-83
2024/04/09 11:37:22;;;;;;;6.57;2.70;;;14.50;89.10;;;;;;818104;176;26435;-82
2024/04/09 11:39:49;;;;;;;13.73;5.77;;;15.00;87.40;;;;;;808993;175;26642;-83
2024/04/09 11:42:16;;;;;;;13.90;6.17;;;15.30;86.20;;;;;;801206;176;26435;-81
2024/04/09 11:44:42;;;;;;;20.27;8.83;;;15.40;84.30;;;;;;812321;176;26433;-82
2024/04/09 11:47:09;;;;;;;22.30;11.00;;;15.40;83.20;;;;;;801795;177;26943;-83
2024/04/09 11:49:36;;;;;;;24.23;11.33;;;16.00;82.50;;;;;;805285;177;26441;-84
2024/04/09 11:52:03;;;;;;;33.53;14.83;;;16.50;77.40;;;;;;812537;176;26440;-81
2024/04/09 11:54:29;;;;;;;4.20;1.90;;;16.00;79.70;;;;;;810119;175;26610;-82
2024/04/09 11:56:56;;;;;;;9.43;4.10;;;15.90;76.80;;;;;;800486;176;26418;-83
2024/04/09 11:59:23;;;;;;;14.43;6.23;;;15.80;77.90;;;;;;799589;179;28237;-83
2024/04/09 12:01:49;;;;;;;22.90;11.43;;;16.30;78.00;;;;;;803741;175;26451;-83
2024/04/09 12:04:17;;;;;;;43.00;20.27;;;16.80;75.30;;;;;;807162;175;26429;-81
2024/04/09 12:06:43;;;;;;;8.30;3.23;;;17.00;74.40;;;;;;802813;177;26417;-82
2024/04/09 12:09:10;;;;;;;10.27;5.57;;;16.40;74.20;;;;;;802949;178;26472;-84
2024/04/09 12:11:39;;;;;;;9.67;4.07;;;16.00;74.30;;;;;;807187;176;26442;-82
2024/04/09 12:14:06;;;;;;;31.60;15.33;;;15.70;79.20;;;;;;812899;176;26452;-82
2024/04/09 12:16:32;;;;;;;28.83;12.90;;;15.20;78.10;;;;;;805935;177;26422;-84
2024/04/09 12:19:00;;;;;;;30.87;14.13;;;15.30;78.60;;;;;;808565;177;26940;-81
2024/04/09 12:21:26;;;;;;;11.23;5.37;;;15.50;78.10;;;;;;809958;175;27052;-82
2024/04/09 12:23:52;;;;;;;3.87;2.20;;;15.90;77.10;;;;;;802452;177;26601;-82
2024/04/09 12:26:19;;;;;;;6.83;2.70;;;15.90;73.10;;;;;;809859;175;26442;-83
2024/04/09 12:28:46;;;;;;;53.53;23.73;;;16.20;70.00;;;;;;804833;179;26431;-82
2024/04/09 12:31:13;;;;;;;27.57;14.50;;;16.80;69.60;;;;;;800615;177;26449;-83
2024/04/09 12:33:40;;;;;;;3.57;2.23;;;16.70;66.00;;;;;;800755;178;26425;-82
2024/04/09 12:36:07;;;;;;;17.37;7.27;;;15.80;67.40;;;;;;804528;175;26433;-83
2024/04/09 12:38:33;;;;;;;14.83;8.33;;;15.70;72.40;;;;;;804503;177;26430;-82
2024/04/09 12:41:00;;;;;;;21.67;11.00;;;15.80;70.50;;;;;;805524;177;26657;-82